createdAt,value
2022-09-20T00:02:57.157Z,99023.28
2022-09-20T00:06:00.421Z,99021.81
2022-09-20T00:09:02.920Z,99011.44
2022-09-20T00:12:04.444Z,99017.41
2022-09-20T00:15:05.989Z,99019.16
2022-09-20T00:18:09.311Z,99011.38
2022-09-20T00:21:17.355Z,99018.00
2022-09-20T00:24:19.150Z,99012.53
2022-09-20T00:27:20.475Z,99022.78
2022-09-20T00:30:22.187Z,99023.66
2022-09-20T00:33:24.167Z,99025.38
2022-09-20T00:36:25.764Z,99014.13
2022-09-20T00:39:27.140Z,99020.28
2022-09-20T00:42:28.913Z,99019.50
2022-09-20T00:45:30.507Z,99013.53
2022-09-20T00:48:31.879Z,99016.16
2022-09-20T00:51:34.069Z,99014.44
2022-09-20T00:54:35.511Z,99008.59
2022-09-20T00:57:38.287Z,99008.59
2022-09-20T01:00:39.601Z,99011.25
2022-09-20T01:03:42.139Z,99004.19
2022-09-20T01:06:43.904Z,99008.56
2022-09-20T01:09:45.230Z,99013.78
2022-09-20T01:12:46.567Z,99015.69
2022-09-20T01:15:47.881Z,99017.22
2022-09-20T01:18:49.216Z,99014.63
2022-09-20T01:21:50.659Z,99016.34
2022-09-20T01:25:00.682Z,99017.22
2022-09-20T01:28:02.066Z,99010.44
2022-09-20T01:31:09.647Z,99003.53
2022-09-20T01:34:14.908Z,99006.94
2022-09-20T01:37:19.207Z,99010.22
2022-09-20T01:40:23.758Z,99005.03
2022-09-20T01:43:35.042Z,99004.88
2022-09-20T01:46:36.413Z,99002.16
2022-09-20T01:49:44.144Z,99009.88
2022-09-20T01:53:05.909Z,99006.44
2022-09-20T01:56:07.208Z,99009.94
2022-09-20T01:59:27.607Z,99003.03
2022-09-20T02:02:38.674Z,99003.13
2022-09-20T02:05:40.039Z,99002.91
2022-09-20T02:08:49.027Z,99004.31
2022-09-20T02:11:59.708Z,98993.66
2022-09-20T02:15:01.002Z,98993.59
2022-09-20T02:18:40.814Z,98991.03
2022-09-20T02:22:02.577Z,98979.59
2022-09-20T02:25:03.889Z,98988.22
2022-09-20T02:28:25.412Z,98987.16
2022-09-20T02:31:32.839Z,98977.50
2022-09-20T02:34:50.524Z,98977.38
2022-09-20T02:37:55.591Z,98969.59
2022-09-20T02:41:01.884Z,98971.13
2022-09-20T02:44:15.239Z,98972.81
2022-09-20T02:47:20.844Z,98978.78
2022-09-20T02:50:40.743Z,98974.53
2022-09-20T02:53:52.243Z,98962.69
2022-09-20T02:57:05.979Z,98974.22
2022-09-20T03:00:10.642Z,98967.84
2022-09-20T03:03:21.336Z,98972.72
2022-09-20T03:06:41.589Z,98981.06
2022-09-20T03:09:54.153Z,98981.81
2022-09-20T03:12:58.528Z,98984.34
2022-09-20T03:16:06.346Z,99000.72
2022-09-20T03:19:26.529Z,98994.81
2022-09-20T03:22:46.536Z,98999.97
2022-09-20T03:25:48.289Z,98997.25
2022-09-20T03:28:52.602Z,98997.84
2022-09-20T03:31:53.913Z,98994.34
2022-09-20T03:35:01.458Z,99000.34
2022-09-20T03:38:02.734Z,99007.22
2022-09-20T03:41:23.453Z,99012.19
2022-09-20T03:44:28.792Z,99017.44
2022-09-20T03:47:48.579Z,99018.19
2022-09-20T03:50:49.934Z,99015.59
2022-09-20T03:53:58.758Z,99019.91
2022-09-20T03:57:06.386Z,99022.59
2022-09-20T04:00:15.439Z,99027.81
2022-09-20T04:03:29.216Z,99019.28
2022-09-20T04:06:30.573Z,99019.19
2022-09-20T04:09:39.364Z,99023.53
2022-09-20T04:12:56.019Z,99026.13
2022-09-20T04:16:02.040Z,99023.16
2022-09-20T04:19:05.298Z,99024.75
2022-09-20T04:22:07.523Z,99024.84
2022-09-20T04:25:35.305Z,99024.00
2022-09-20T04:28:41.513Z,99031.00
2022-09-20T04:31:53.321Z,99028.63
2022-09-20T04:35:23.382Z,99032.59
2022-09-20T04:38:26.354Z,99029.00
2022-09-20T04:41:34.382Z,99034.81
2022-09-20T04:44:48.000Z,99041.00
2022-09-20T04:47:58.642Z,99033.84
2022-09-20T04:50:59.997Z,99049.44
2022-09-20T04:54:20.190Z,99044.03
2022-09-20T04:57:40.414Z,99046.47
2022-09-20T05:01:01.025Z,99041.28
2022-09-20T05:04:05.519Z,99043.91
2022-09-20T05:07:12.688Z,99047.25
2022-09-20T05:10:26.531Z,99051.47
2022-09-20T05:13:34.624Z,99054.31
2022-09-20T05:16:47.337Z,99055.25
2022-09-20T05:20:12.446Z,99064.19
2022-09-20T05:23:34.621Z,99069.72
2022-09-20T05:26:54.604Z,99063.63
2022-09-20T05:30:14.578Z,99078.22
2022-09-20T05:33:28.160Z,99070.34
2022-09-20T05:36:34.372Z,99076.16
2022-09-20T05:39:42.034Z,99078.63
2022-09-20T05:43:01.244Z,99082.88
2022-09-20T05:46:04.303Z,99082.88
2022-09-20T05:49:08.398Z,99078.88
2022-09-20T05:52:28.577Z,99091.28
2022-09-20T05:55:42.488Z,99089.50
2022-09-20T05:58:46.593Z,99082.56
2022-09-20T06:01:51.013Z,99088.81
2022-09-20T06:04:56.249Z,99099.41
2022-09-20T06:08:13.009Z,99098.66
2022-09-20T06:11:14.281Z,99092.78
2022-09-20T06:14:27.521Z,99102.66
2022-09-20T06:17:28.816Z,99101.16
2022-09-20T06:20:43.186Z,99097.94
2022-09-20T06:23:44.511Z,99087.59
2022-09-20T06:26:45.875Z,99083.31
2022-09-20T06:29:49.158Z,99078.56
2022-09-20T06:32:54.378Z,99073.78
2022-09-20T06:36:21.810Z,99079.19
2022-09-20T06:39:57.012Z,99082.72
2022-09-20T06:43:00.224Z,99077.88
2022-09-20T06:46:01.626Z,99083.28
2022-09-20T06:49:03.140Z,99081.75
2022-09-20T06:52:04.961Z,99085.63
2022-09-20T06:55:07.450Z,99072.25
2022-09-20T06:58:09.778Z,99076.16
2022-09-20T07:01:11.141Z,99079.81
2022-09-20T07:04:12.488Z,99076.53
2022-09-20T07:07:16.039Z,99073.19
2022-09-20T07:10:17.445Z,99077.78
2022-09-20T07:13:20.835Z,99082.53
2022-09-20T07:16:22.182Z,99079.38
2022-09-20T07:19:23.548Z,99082.25
2022-09-20T07:22:25.104Z,99085.16
2022-09-20T07:25:26.426Z,99094.03
2022-09-20T07:28:28.658Z,99096.00
2022-09-20T07:31:30.013Z,99099.50
2022-09-20T07:34:32.100Z,99098.75
2022-09-20T07:37:36.962Z,99102.34
2022-09-20T07:40:38.705Z,99107.00
2022-09-20T07:43:40.158Z,99114.41
2022-09-20T07:46:41.644Z,99120.69
2022-09-20T07:49:42.990Z,99119.16
2022-09-20T07:52:44.355Z,99118.41
2022-09-20T07:55:56.718Z,99124.53
2022-09-20T07:58:58.029Z,99125.69
2022-09-20T08:02:00.686Z,99130.25
2022-09-20T08:05:02.342Z,99138.34
2022-09-20T08:08:03.708Z,99135.03
2022-09-20T08:11:06.425Z,99142.91
2022-09-20T08:14:09.104Z,99143.19
2022-09-20T08:17:19.483Z,99153.78
2022-09-20T08:20:20.883Z,99156.63
2022-09-20T08:23:24.060Z,99146.44
2022-09-20T08:26:26.093Z,99156.94
2022-09-20T08:29:27.447Z,99154.38
2022-09-20T08:32:28.822Z,99157.16
2022-09-20T08:35:30.153Z,99157.22
2022-09-20T08:41:57.237Z,99158.41
2022-09-20T08:44:59.448Z,99168.13
2022-09-20T08:48:02.050Z,99162.91
2022-09-20T08:51:05.647Z,99166.47
2022-09-20T08:54:07.413Z,99165.47
2022-09-20T08:57:15.866Z,99167.91
2022-09-20T09:00:21.044Z,99168.69
2022-09-20T09:03:22.362Z,99165.19
2022-09-20T09:06:24.699Z,99159.16
2022-09-20T09:09:26.682Z,99163.28
2022-09-20T09:12:31.082Z,99148.25
2022-09-20T09:15:33.641Z,99155.91
2022-09-20T09:18:39.172Z,99158.50
2022-09-20T09:21:42.055Z,99156.69
2022-09-20T09:24:43.372Z,99161.06
2022-09-20T09:27:58.370Z,99156.94
2022-09-20T09:31:22.986Z,99153.53
2022-09-20T09:34:28.182Z,99149.22
2022-09-20T09:37:30.993Z,99150.66
2022-09-20T09:40:32.433Z,99159.69
2022-09-20T09:43:35.573Z,99144.22
2022-09-20T09:46:37.911Z,99155.72
2022-09-20T09:49:39.230Z,99154.88
2022-09-20T09:52:40.589Z,99154.78
2022-09-20T09:55:59.100Z,99144.22
2022-09-20T09:59:13.991Z,99149.31
2022-09-20T10:02:15.388Z,99148.25
2022-09-20T10:05:35.500Z,99133.81
2022-09-20T10:08:55.640Z,99141.81
2022-09-20T10:12:12.170Z,99142.19
2022-09-20T10:15:17.162Z,99134.56
2022-09-20T10:18:21.578Z,99136.69
2022-09-20T10:21:43.424Z,99119.56
2022-09-20T10:24:51.779Z,99126.31
2022-09-20T10:27:59.302Z,99125.28
2022-09-20T10:31:01.696Z,99109.69
2022-09-20T10:34:27.232Z,99102.50
2022-09-20T10:37:33.598Z,99107.53
2022-09-20T10:41:04.251Z,99113.91
2022-09-20T10:44:10.430Z,99112.50
2022-09-20T10:47:22.156Z,99098.97
2022-09-20T10:50:35.873Z,99097.25
2022-09-20T10:53:49.442Z,99098.53
2022-09-20T10:56:51.426Z,99094.28
2022-09-20T10:59:55.899Z,99111.25
2022-09-20T11:03:05.993Z,99119.19
2022-09-20T11:06:13.345Z,99111.47
2022-09-20T11:09:16.848Z,99125.06
2022-09-20T11:12:29.500Z,99120.69
2022-09-20T11:15:32.802Z,99127.34
2022-09-20T11:18:43.408Z,99129.06
2022-09-20T11:21:46.470Z,99137.47
2022-09-20T11:25:19.390Z,99142.00
2022-09-20T11:28:26.887Z,99147.38
2022-09-20T11:31:30.726Z,99157.03
2022-09-20T11:34:32.866Z,99158.84
2022-09-20T11:37:35.498Z,99157.94
2022-09-20T11:40:37.598Z,99161.44
2022-09-20T11:43:42.688Z,99154.34
2022-09-20T11:46:55.611Z,99151.84
2022-09-20T11:50:04.083Z,99153.59
2022-09-20T11:53:24.582Z,99154.38
2022-09-20T11:56:26.254Z,99150.66
2022-09-20T11:59:30.931Z,99137.44
2022-09-20T12:02:37.428Z,99139.84
2022-09-20T12:05:39.416Z,99128.22
2022-09-20T12:08:40.805Z,99117.00
2022-09-20T12:11:42.318Z,99108.91
2022-09-20T12:14:45.038Z,99104.91
2022-09-20T12:17:46.310Z,99107.25
2022-09-20T12:20:51.438Z,99087.97
2022-09-20T12:23:52.724Z,99093.94
2022-09-20T12:26:56.277Z,99052.94
2022-09-20T12:30:07.075Z,99039.38
2022-09-20T12:33:18.331Z,99062.09
2022-09-20T12:36:19.661Z,99036.94
2022-09-20T12:39:30.465Z,99040.19
2022-09-20T12:42:32.233Z,99044.59
2022-09-20T12:45:33.666Z,99058.25
2022-09-20T12:48:35.984Z,99060.50
2022-09-20T12:51:56.130Z,99064.50
2022-09-20T12:55:00.973Z,99061.47
2022-09-20T12:58:11.236Z,99087.09
2022-09-20T13:01:14.532Z,99081.09
2022-09-20T13:04:34.570Z,99090.75
2022-09-20T13:07:43.776Z,99085.75
2022-09-20T13:10:49.989Z,99086.00
2022-09-20T13:14:04.214Z,99087.69
2022-09-20T13:17:19.708Z,99096.47
2022-09-20T13:20:22.597Z,99079.97
2022-09-20T13:23:26.236Z,99075.09
2022-09-20T13:26:30.101Z,99049.09
2022-09-20T13:29:37.502Z,99032.00
2022-09-20T13:32:41.705Z,99026.69
2022-09-20T13:35:44.187Z,99056.53
2022-09-20T13:38:46.406Z,99062.41
2022-09-20T13:41:48.471Z,99074.84
2022-09-20T13:44:49.866Z,99048.69
2022-09-20T13:47:51.698Z,99037.31
2022-09-20T13:50:53.929Z,99032.25
2022-09-20T13:53:55.606Z,99048.50
2022-09-20T13:57:00.755Z,99065.69
2022-09-20T14:00:02.444Z,99082.75
2022-09-20T14:03:03.881Z,99061.53
2022-09-20T14:06:12.036Z,99052.56
2022-09-20T14:09:18.927Z,99053.56
2022-09-20T14:12:20.669Z,99029.31
2022-09-20T14:15:22.043Z,99026.84
2022-09-20T14:18:24.523Z,99031.91
2022-09-20T14:21:26.769Z,99032.66
2022-09-20T14:24:30.344Z,99021.75
2022-09-20T14:27:32.665Z,99061.28
2022-09-20T14:30:36.411Z,99035.91
2022-09-20T14:33:40.141Z,99064.53
2022-09-20T14:36:41.600Z,99084.97
2022-09-20T14:39:47.296Z,99093.47
2022-09-20T14:42:50.410Z,99087.63
2022-09-20T14:45:52.371Z,99093.81
2022-09-20T14:48:53.779Z,99097.44
2022-09-20T14:52:15.049Z,99092.22
2022-09-20T14:55:28.394Z,99093.34
2022-09-20T14:58:30.921Z,99091.84
2022-09-20T15:01:32.769Z,99104.09
2022-09-20T15:04:35.736Z,99104.25
2022-09-20T15:07:37.169Z,99097.28
2022-09-20T15:10:38.545Z,99108.75
2022-09-20T15:13:39.889Z,99105.38
2022-09-20T15:16:41.269Z,99110.75
2022-09-20T15:19:42.659Z,99113.44
2022-09-20T15:22:44.056Z,99116.94
2022-09-20T15:25:45.630Z,99117.88
2022-09-20T15:28:47.110Z,99119.69
2022-09-20T15:31:48.607Z,99125.84
2022-09-20T15:34:49.982Z,99132.84
2022-09-20T15:37:51.359Z,99130.34
2022-09-20T15:40:52.778Z,99135.66
2022-09-20T15:43:54.197Z,99140.94
2022-09-20T15:46:55.608Z,99145.38
2022-09-20T15:49:57.578Z,99141.06
2022-09-20T15:53:00.061Z,99135.88
2022-09-20T15:56:02.509Z,99143.75
2022-09-20T15:59:04.936Z,99145.50
2022-09-20T16:02:07.242Z,99142.00
2022-09-20T16:05:10.073Z,99142.88
2022-09-20T16:08:11.464Z,99143.78
2022-09-20T16:11:13.339Z,99138.53
2022-09-20T16:14:14.724Z,99142.03
2022-09-20T16:17:16.381Z,99142.03
2022-09-20T16:20:17.730Z,99144.63
2022-09-20T16:23:21.864Z,99143.75
2022-09-20T16:26:27.303Z,99149.00
2022-09-20T16:29:30.028Z,99142.88
2022-09-20T16:32:31.396Z,99154.22
2022-09-20T16:35:34.116Z,99151.63
2022-09-20T16:38:38.799Z,99146.38
2022-09-20T16:41:40.705Z,99149.88
2022-09-20T16:44:42.716Z,99156.84
2022-09-20T16:47:44.133Z,99148.97
2022-09-20T16:50:54.119Z,99157.75
2022-09-20T16:53:55.723Z,99155.97
2022-09-20T16:56:57.286Z,99159.47
2022-09-20T16:59:58.938Z,99163.84
2022-09-20T17:03:00.257Z,99170.81
2022-09-20T17:06:05.438Z,99162.97
2022-09-20T17:09:07.039Z,99169.94
2022-09-20T17:12:09.643Z,99162.97
2022-09-20T17:15:13.150Z,99170.81
2022-09-20T17:18:15.746Z,99169.06
2022-09-20T17:21:17.216Z,99173.44
2022-09-20T17:24:19.164Z,99171.66
2022-09-20T17:27:20.491Z,99173.44
2022-09-20T17:30:21.915Z,99169.91
2022-09-20T17:33:23.239Z,99176.88
2022-09-20T17:36:24.770Z,99175.13
2022-09-20T17:39:26.210Z,99181.22
2022-09-20T17:42:28.360Z,99174.22
2022-09-20T17:45:29.708Z,99172.44
2022-09-20T17:48:31.555Z,99179.34
2022-09-20T17:51:34.158Z,99181.06
2022-09-20T17:54:35.511Z,99190.59
2022-09-20T17:57:37.550Z,99193.22
2022-09-20T18:00:39.035Z,99187.91
2022-09-20T18:03:41.376Z,99194.84
2022-09-20T18:06:46.718Z,99194.78
2022-09-20T18:09:48.082Z,99192.94
2022-09-20T18:12:49.816Z,99205.13
2022-09-20T18:15:51.932Z,99199.03
2022-09-20T18:18:53.322Z,99200.75
2022-09-20T18:21:54.795Z,99205.94
2022-09-20T18:24:56.186Z,99205.06
2022-09-20T18:27:58.064Z,99212.03
2022-09-20T18:31:02.638Z,99208.59
2022-09-20T18:34:04.623Z,99209.38
2022-09-20T18:37:12.479Z,99211.94
2022-09-20T18:40:16.049Z,99205.03
2022-09-20T18:43:17.424Z,99211.16
2022-09-20T18:46:24.787Z,99208.47
2022-09-20T18:49:26.300Z,99219.72
2022-09-20T18:52:29.683Z,99217.06
2022-09-20T18:55:31.257Z,99221.38
2022-09-20T18:58:32.661Z,99217.00
2022-09-20T19:01:36.805Z,99217.84
2022-09-20T19:04:57.723Z,99220.44
2022-09-20T19:07:59.039Z,99227.41
2022-09-20T19:11:20.809Z,99224.75
2022-09-20T19:14:24.427Z,99224.75
2022-09-20T19:17:29.128Z,99222.97
2022-09-20T19:20:35.206Z,99227.31
2022-09-20T19:23:42.877Z,99225.50
2022-09-20T19:26:44.679Z,99232.44
2022-09-20T19:29:46.208Z,99239.50
2022-09-20T19:32:48.020Z,99235.16
2022-09-20T19:35:50.056Z,99242.97
2022-09-20T19:39:01.213Z,99234.28
2022-09-20T19:42:26.573Z,99241.22
2022-09-20T19:45:33.908Z,99239.53
2022-09-20T19:48:39.177Z,99243.00
2022-09-20T19:51:41.086Z,99243.84
2022-09-20T19:54:46.744Z,99245.53
2022-09-20T19:57:48.319Z,99243.75
2022-09-20T20:00:49.810Z,99241.97
2022-09-20T20:03:54.182Z,99233.25
2022-09-20T20:06:55.677Z,99238.44
2022-09-20T20:09:58.826Z,99232.38
2022-09-20T20:13:25.690Z,99240.19
2022-09-20T20:16:42.382Z,99240.19
2022-09-20T20:19:46.766Z,99249.72
2022-09-20T20:22:57.200Z,99253.09
2022-09-20T20:26:06.104Z,99255.72
2022-09-20T20:29:09.495Z,99252.22
2022-09-20T20:32:10.928Z,99253.09
2022-09-20T20:35:13.949Z,99247.84
2022-09-20T20:38:15.457Z,99252.28
2022-09-20T20:41:18.408Z,99250.59
2022-09-20T20:44:21.239Z,99254.94
2022-09-20T20:47:23.221Z,99252.31
2022-09-20T20:50:28.126Z,99261.00
2022-09-20T20:53:30.114Z,99256.63
2022-09-20T20:56:31.485Z,99258.28
2022-09-20T20:59:32.855Z,99258.25
2022-09-20T21:02:34.593Z,99269.41
2022-09-20T21:05:36.242Z,99254.66
2022-09-20T21:08:38.194Z,99259.81
2022-09-20T21:11:44.336Z,99264.16
2022-09-20T21:14:46.024Z,99257.25
2022-09-20T21:17:51.263Z,99259.03
2022-09-20T21:20:52.662Z,99264.25
2022-09-20T21:23:54.637Z,99262.50
2022-09-20T21:26:56.111Z,99265.09
2022-09-20T21:29:57.853Z,99262.50
2022-09-20T21:32:59.628Z,99260.78
2022-09-20T21:36:01.092Z,99265.06
2022-09-20T21:39:02.533Z,99265.84
2022-09-20T21:42:04.427Z,99271.88
2022-09-20T21:45:09.169Z,99263.13
2022-09-20T21:48:10.594Z,99251.03
2022-09-20T21:51:12.403Z,99261.34
2022-09-20T21:54:13.888Z,99259.63
2022-09-20T21:57:15.225Z,99258.69
2022-09-20T22:00:16.893Z,99261.25
2022-09-20T22:03:18.244Z,99247.41
2022-09-20T22:06:20.723Z,99250.94
2022-09-20T22:09:24.097Z,99250.03
2022-09-20T22:12:25.430Z,99252.56
2022-09-20T22:15:26.844Z,99253.47
2022-09-20T22:18:28.243Z,99253.44
2022-09-20T22:21:30.377Z,99259.41
2022-09-20T22:24:31.911Z,99255.88
2022-09-20T22:27:33.271Z,99254.06
2022-09-20T22:30:34.707Z,99247.84
2022-09-20T22:33:36.660Z,99243.50
2022-09-20T22:36:38.807Z,99242.69
2022-09-20T22:39:40.379Z,99241.75
2022-09-20T22:42:42.187Z,99240.88
2022-09-20T22:45:43.597Z,99246.88
2022-09-20T22:48:44.963Z,99242.31
2022-09-20T22:51:46.454Z,99239.56
2022-09-20T22:54:47.827Z,99245.66
2022-09-20T22:57:52.347Z,99243.88
2022-09-20T23:00:53.775Z,99244.53
2022-09-20T23:03:56.247Z,99241.75
2022-09-20T23:06:57.774Z,99236.41
2022-09-20T23:09:59.115Z,99236.34
2022-09-20T23:13:01.451Z,99225.88
2022-09-20T23:16:09.880Z,99225.66
2022-09-20T23:19:11.269Z,99232.34
2022-09-20T23:22:12.685Z,99229.63
2022-09-20T23:25:14.034Z,99230.47
2022-09-20T23:28:15.399Z,99232.22
2022-09-20T23:31:17.039Z,99226.16
2022-09-20T23:34:18.505Z,99222.38
2022-09-20T23:37:19.845Z,99229.00
2022-09-20T23:40:21.273Z,99222.75
2022-09-20T23:43:22.640Z,99226.84
2022-09-20T23:46:24.321Z,99229.53
2022-09-20T23:49:25.672Z,99222.50
2022-09-20T23:52:26.993Z,99222.22
2022-09-20T23:55:28.809Z,99227.19
2022-09-20T23:58:30.154Z,99233.28
